Time;durP1;ratioP1;P1;durP2;ratioP2;P2;SDS_P1;SDS_P2;PMS_P1;PMS_P2;Temp;Humidity;BMP_temperature;BMP_pressure;BME280_temperature;BME280_humidity;BME280_pressure;Samples;Min_cycle;Max_cycle;Signal;HPM_P1;HPM_P2
2022/04/16 00:03:25;;;;;;;5.03;2.38;;;;;;;;;;10517067;28;20457;-70
2022/04/16 00:08:30;;;;;;;4.65;2.22;;;;;;;;;;10490331;28;20435;-70
2022/04/16 00:13:33;;;;;;;6.18;2.67;;;;;;;;;;10512968;28;20485;-69
2022/04/16 00:18:36;;;;;;;5.32;2.92;;;;;;;;;;10515627;28;20032;-70
2022/04/16 00:23:42;;;;;;;5.80;2.67;;;;;;;;;;10512225;28;20036;-71
2022/04/16 00:28:48;;;;;;;4.82;2.20;;;;;;;;;;10511459;28;20086;-69
2022/04/16 00:33:52;;;;;;;;;;;;;;;;;;10512798;28;20191;-70
2022/04/16 00:38:56;;;;;;;;;;;;;;;;;;10506317;28;19949;-69
2022/04/16 00:44:01;;;;;;;5.22;2.40;;;;;;;;;;10503474;28;19993;-70
2022/04/16 00:49:04;;;;;;;4.38;2.22;;;;;;;;;;10515204;28;20043;-70
2022/04/16 00:54:08;;;;;;;6.53;2.30;;;;;;;;;;10518359;28;20070;-70
2022/04/16 00:59:14;;;;;;;4.93;2.08;;;;;;;;;;10512254;28;20456;-70
2022/04/16 01:04:17;;;;;;;4.18;2.38;;;;;;;;;;10521026;28;20043;-70
2022/04/16 01:09:21;;;;;;;6.50;2.40;;;;;;;;;;10512838;28;20563;-69
2022/04/16 01:14:29;;;;;;;7.50;2.50;;;;;;;;;;10511695;28;20032;-70
2022/04/16 01:19:32;;;;;;;4.65;2.03;;;;;;;;;;10510335;28;20087;-70
2022/04/16 01:24:43;;;;;;;4.47;2.30;;;;;;;;;;10514688;28;20127;-70
2022/04/16 01:29:47;;;;;;;4.55;2.28;;;;;;;;;;10509170;28;20032;-70
2022/04/16 01:34:52;;;;;;;6.57;2.63;;;;;;;;;;10509220;28;20455;-70
2022/04/16 01:39:57;;;;;;;4.25;2.20;;;;;;;;;;10512176;28;20040;-70
2022/04/16 01:45:01;;;;;;;5.28;2.72;;;;;;;;;;10515609;28;20265;-71
2022/04/16 01:50:05;;;;;;;;;;;;;;;;;;10505126;28;20094;-70
2022/04/16 01:55:12;;;;;;;4.22;2.03;;;;;;;;;;10505282;28;19921;-70
2022/04/16 02:00:15;;;;;;;4.82;2.20;;;;;;;;;;10500272;28;20044;-70
2022/04/16 02:05:18;;;;;;;5.30;2.58;;;;;;;;;;10509972;28;20036;-70
2022/04/16 02:10:22;;;;;;;5.85;2.53;;;;;;;;;;10509360;28;20105;-71
2022/04/16 02:15:25;;;;;;;5.22;2.45;;;;;;;;;;10510575;28;20206;-70
2022/04/16 02:20:28;;;;;;;6.90;2.72;;;;;;;;;;10512817;28;20044;-71
2022/04/16 02:25:33;;;;;;;4.95;2.60;;;;;;;;;;10489389;28;20460;-71
2022/04/16 02:30:37;;;;;;;6.80;3.20;;;;;;;;;;10514352;28;20511;-70
2022/04/16 02:35:40;;;;;;;5.50;2.63;;;;;;;;;;10513009;28;20078;-71
2022/04/16 02:40:45;;;;;;;8.35;3.10;;;;;;;;;;10509432;28;20036;-71
2022/04/16 02:51:09;;;;;;;7.95;2.90;;;;;;;;;;10508165;28;20036;-69
2022/04/16 02:56:14;;;;;;;8.23;3.15;;;;;;;;;;10509317;28;20036;-69
2022/04/16 03:01:17;;;;;;;;;;;;;;;;;;10509357;28;20135;-69
2022/04/16 03:06:20;;;;;;;6.18;3.15;;;;;;;;;;10510592;28;20372;-71
2022/04/16 03:11:24;;;;;;;8.80;3.55;;;;;;;;;;10509047;28;20040;-71
2022/04/16 03:21:47;;;;;;;11.05;4.00;;;;;;;;;;10514631;28;19971;-72
2022/04/16 03:26:53;;;;;;;8.70;3.80;;;;;;;;;;10505625;28;20558;-71
2022/04/16 03:31:56;;;;;;;10.65;4.47;;;;;;;;;;10489191;28;20032;-71
2022/04/16 03:37:00;;;;;;;9.88;3.63;;;;;;;;;;10510544;28;20071;-69
2022/04/16 03:42:05;;;;;;;8.50;3.33;;;;;;;;;;10506235;28;20044;-69
2022/04/16 03:47:10;;;;;;;9.52;3.38;;;;;;;;;;10508429;28;20060;-70
2022/04/16 03:52:13;;;;;;;7.60;3.30;;;;;;;;;;10508052;28;20036;-69
2022/04/16 04:02:39;;;;;;;10.50;3.58;;;;;;;;;;10509054;28;20066;-70
2022/04/16 04:07:42;;;;;;;8.13;3.17;;;;;;;;;;10512112;28;20209;-69
2022/04/16 04:12:46;;;;;;;12.10;4.05;;;;;;;;;;10509351;28;20029;-69
2022/04/16 04:17:49;;;;;;;8.88;3.60;;;;;;;;;;10512148;28;20113;-70
2022/04/16 04:22:52;;;;;;;10.95;3.83;;;;;;;;;;10472435;22;20041;-73
2022/04/16 04:27:56;;;;;;;7.68;3.67;;;;;;;;;;10448004;28;20523;-72
2022/04/16 04:32:59;;;;;;;12.68;4.20;;;;;;;;;;10422903;28;20084;-72
2022/04/16 04:38:03;;;;;;;10.77;4.33;;;;;;;;;;10420257;28;20037;-72
2022/04/16 04:43:07;;;;;;;10.98;3.47;;;;;;;;;;10416204;28;20026;-72
2022/04/16 04:48:10;;;;;;;12.00;3.97;;;;;;;;;;10438991;28;20470;-72
2022/04/16 04:53:13;;;;;;;11.65;4.75;;;;;;;;;;10427187;28;20044;-72
2022/04/16 04:58:18;;;;;;;9.57;3.92;;;;;;;;;;10441327;28;20504;-72
2022/04/16 05:03:24;;;;;;;13.25;5.25;;;;;;;;;;10422237;28;20047;-73
2022/04/16 05:08:27;;;;;;;15.60;6.40;;;;;;;;;;10421854;28;20056;-73
2022/04/16 05:13:31;;;;;;;9.48;3.83;;;;;;;;;;10425803;28;20045;-72
2022/04/16 05:18:35;;;;;;;8.57;4.07;;;;;;;;;;10428591;28;20163;-72
2022/04/16 05:23:39;;;;;;;9.47;4.00;;;;;;;;;;10421646;28;20343;-72
2022/04/16 05:28:45;;;;;;;8.90;3.50;;;;;;;;;;10423643;28;20041;-72
2022/04/16 05:39:11;;;;;;;7.80;3.55;;;;;;;;;;10427394;28;20227;-73
2022/04/16 05:44:16;;;;;;;32.53;11.98;;;;;;;;;;10437278;28;20069;-73
2022/04/16 05:49:25;;;;;;;8.65;3.88;;;;;;;;;;10421657;28;20037;-73
2022/04/16 05:54:34;;;;;;;8.82;3.47;;;;;;;;;;10426228;28;20060;-73
2022/04/16 05:59:39;;;;;;;7.20;3.30;;;;;;;;;;10422042;28;20041;-70
2022/04/16 06:04:41;;;;;;;10.02;3.67;;;;;;;;;;10420391;28;20296;-72
2022/04/16 06:09:45;;;;;;;8.65;4.05;;;;;;;;;;10424804;28;20080;-72
2022/04/16 06:14:53;;;;;;;8.90;3.73;;;;;;;;;;10421761;28;20061;-72
2022/04/16 06:19:56;;;;;;;5.57;2.90;;;;;;;;;;10425060;28;20493;-72
2022/04/16 06:24:58;;;;;;;8.73;3.90;;;;;;;;;;10426157;28;20155;-72
2022/04/16 06:30:09;;;;;;;7.45;3.72;;;;;;;;;;10430436;28;20045;-71
2022/04/16 06:35:12;;;;;;;8.93;4.22;;;;;;;;;;10422789;28;20072;-71
2022/04/16 06:40:14;;;;;;;8.80;4.10;;;;;;;;;;10424865;28;20493;-72
2022/04/16 06:45:19;;;;;;;7.95;3.80;;;;;;;;;;10426228;28;20503;-72
2022/04/16 06:50:22;;;;;;;6.82;3.30;;;;;;;;;;10423163;28;20036;-71
2022/04/16 06:55:29;;;;;;;7.93;3.85;;;;;;;;;;10445361;28;20035;-73
2022/04/16 07:00:33;;;;;;;7.95;3.65;;;;;;;;;;10421466;28;20044;-73
2022/04/16 07:05:42;;;;;;;9.70;4.55;;;;;;;;;;10427950;28;20029;-71
2022/04/16 07:10:44;;;;;;;10.00;4.18;;;;;;;;;;10417734;28;20037;-72
2022/04/16 07:15:49;;;;;;;10.57;4.47;;;;;;;;;;10435905;28;20042;-73
2022/04/16 07:20:51;;;;;;;8.20;3.47;;;;;;;;;;10423922;28;20045;-72
2022/04/16 07:26:00;;;;;;;9.32;3.97;;;;;;;;;;10424340;28;20045;-71
2022/04/16 07:31:04;;;;;;;9.45;4.47;;;;;;;;;;10427148;28;20032;-72
2022/04/16 07:36:07;;;;;;;9.07;4.57;;;;;;;;;;10420304;28;20076;-72
2022/04/16 07:41:10;;;;;;;9.35;3.65;;;;;;;;;;10423960;28;20033;-71
2022/04/16 07:46:15;;;;;;;7.07;3.53;;;;;;;;;;10424808;28;20128;-72
2022/04/16 07:51:18;;;;;;;9.70;4.43;;;;;;;;;;10420469;28;20166;-73
2022/04/16 07:56:21;;;;;;;9.43;4.20;;;;;;;;;;10436918;28;20376;-73
2022/04/16 08:01:25;;;;;;;7.43;3.60;;;;;;;;;;10426957;28;20044;-73
2022/04/16 08:06:35;;;;;;;9.43;3.70;;;;;;;;;;10416763;28;20099;-72
2022/04/16 08:11:38;;;;;;;6.07;3.33;;;;;;;;;;10425184;28;20068;-72
2022/04/16 08:16:42;;;;;;;7.70;3.40;;;;;;;;;;10423037;28;20060;-71
2022/04/16 08:21:45;;;;;;;8.60;4.10;;;;;;;;;;10429228;28;20041;-72
2022/04/16 08:26:48;;;;;;;9.43;4.20;;;;;;;;;;10429288;28;20307;-71
2022/04/16 08:31:52;;;;;;;7.00;3.63;;;;;;;;;;10430946;28;20061;-72
2022/04/16 08:37:15;;;;;;;9.43;4.65;;;;;;;;;;10446552;28;20139;-73
2022/04/16 08:42:18;;;;;;;8.40;4.00;;;;;;;;;;10428246;28;20364;-73
2022/04/16 08:47:22;;;;;;;6.10;3.08;;;;;;;;;;10419433;28;20053;-73
2022/04/16 08:52:26;;;;;;;6.78;3.72;;;;;;;;;;10427394;28;20044;-73
2022/04/16 08:57:29;;;;;;;8.55;3.88;;;;;;;;;;10429275;28;20037;-74
2022/04/16 09:02:33;;;;;;;7.82;4.03;;;;;;;;;;10426666;28;20037;-72
2022/04/16 09:07:44;;;;;;;7.45;3.88;;;;;;;;;;10419966;28;20316;-73
2022/04/16 09:12:50;;;;;;;5.97;3.42;;;;;;;;;;10431258;28;20056;-73
2022/04/16 09:17:59;;;;;;;6.75;3.30;;;;;;;;;;10429746;28;20381;-71
2022/04/16 09:23:15;;;;;;;7.30;3.83;;;;;;;;;;10428758;28;20032;-69
2022/04/16 09:28:19;;;;;;;9.13;3.30;;;;;;;;;;10441965;28;20397;-72
2022/04/16 09:33:24;;;;;;;6.50;3.13;;;;;;;;;;10434270;28;20059;-72
2022/04/16 09:38:34;;;;;;;4.95;3.10;;;;;;;;;;10427752;28;20042;-72
2022/04/16 09:43:38;;;;;;;5.78;3.13;;;;;;;;;;10423222;28;20102;-72
2022/04/16 09:48:43;;;;;;;4.88;2.78;;;;;;;;;;10432444;28;20504;-73
2022/04/16 09:53:46;;;;;;;5.43;3.20;;;;;;;;;;10428114;28;20034;-73
2022/04/16 09:58:51;;;;;;;4.53;2.70;;;;;;;;;;10423352;28;20037;-73
2022/04/16 10:03:56;;;;;;;7.28;3.40;;;;;;;;;;10420730;28;20034;-71
2022/04/16 10:09:00;;;;;;;6.97;3.40;;;;;;;;;;10422290;28;20155;-73
2022/04/16 10:14:06;;;;;;;5.13;3.03;;;;;;;;;;10425452;28;20033;-73
2022/04/16 10:19:18;;;;;;;6.57;3.17;;;;;;;;;;10427820;28;20056;-73
2022/04/16 10:24:24;;;;;;;4.55;2.63;;;;;;;;;;10511178;22;20036;-71
2022/04/16 10:29:27;;;;;;;4.85;2.80;;;;;;;;;;10483873;28;20059;-71
2022/04/16 10:34:31;;;;;;;7.97;3.38;;;;;;;;;;10451708;28;20122;-70
2022/04/16 10:39:36;;;;;;;5.57;3.00;;;;;;;;;;10435274;28;20064;-71
2022/04/16 10:44:43;;;;;;;6.88;3.40;;;;;;;;;;10430426;28;20033;-70
2022/04/16 10:49:48;;;;;;;8.02;3.90;;;;;;;;;;10433386;28;20066;-70
2022/04/16 10:55:00;;;;;;;7.03;3.72;;;;;;;;;;10429072;28;20037;-70
2022/04/16 11:00:13;;;;;;;7.75;4.00;;;;;;;;;;10432341;28;20037;-70
2022/04/16 11:05:41;;;;;;;8.00;3.88;;;;;;;;;;10428262;28;20148;-71
2022/04/16 11:10:44;;;;;;;7.70;3.75;;;;;;;;;;10433269;28;20064;-72
2022/04/16 11:15:48;;;;;;;5.80;3.17;;;;;;;;;;10432467;28;20488;-72
2022/04/16 11:20:56;;;;;;;6.03;3.50;;;;;;;;;;10427406;28;20064;-71
2022/04/16 11:36:41;;;;;;;7.75;3.88;;;;;;;;;;10434180;28;20103;-70
2022/04/16 11:41:47;;;;;;;5.95;3.55;;;;;;;;;;10434619;28;20339;-70
2022/04/16 11:46:49;;;;;;;5.93;3.50;;;;;;;;;;10425806;28;20073;-71
2022/04/16 11:51:54;;;;;;;6.90;3.60;;;;;;;;;;10428434;28;20404;-70
2022/04/16 11:56:57;;;;;;;5.53;3.22;;;;;;;;;;10431162;28;20416;-70
2022/04/16 12:02:00;;;;;;;7.83;4.30;;;;;;;;;;10436067;28;20080;-71
2022/04/16 12:07:09;;;;;;;9.07;4.38;;;;;;;;;;10441570;28;20033;-70
2022/04/16 12:12:16;;;;;;;11.52;4.07;;;;;;;;;;10435677;28;20520;-72
2022/04/16 12:17:25;;;;;;;10.63;5.78;;;;;;;;;;10465086;28;20033;-70
2022/04/16 12:22:29;;;;;;;12.07;6.15;;;;;;;;;;10435390;28;20042;-70
2022/04/16 12:27:32;;;;;;;11.38;5.00;;;;;;;;;;10438430;28;20044;-72
2022/04/16 12:32:35;;;;;;;11.52;6.00;;;;;;;;;;10434005;28;20037;-70
2022/04/16 12:37:40;;;;;;;10.80;5.93;;;;;;;;;;10454043;28;20064;-71
2022/04/16 12:42:43;;;;;;;9.80;5.63;;;;;;;;;;10435968;28;20041;-71
2022/04/16 12:47:45;;;;;;;9.73;5.95;;;;;;;;;;10439210;28;20103;-71
2022/04/16 12:52:51;;;;;;;9.38;4.88;;;;;;;;;;10453141;28;20077;-71
2022/04/16 12:57:54;;;;;;;9.40;5.15;;;;;;;;;;10438162;28;20041;-70
2022/04/16 13:02:59;;;;;;;9.38;5.43;;;;;;;;;;10451419;28;20148;-72
2022/04/16 13:08:04;;;;;;;7.55;4.93;;;;;;;;;;10445427;28;20548;-73
2022/04/16 13:13:07;;;;;;;8.00;4.60;;;;;;;;;;10445300;28;20037;-72
2022/04/16 13:18:09;;;;;;;6.72;4.53;;;;;;;;;;10456385;28;20041;-71
2022/04/16 13:23:14;;;;;;;8.68;5.07;;;;;;;;;;10439103;28;20525;-71
2022/04/16 13:28:16;;;;;;;7.35;4.40;;;;;;;;;;10443218;28;20037;-71
2022/04/16 13:33:19;;;;;;;6.63;4.32;;;;;;;;;;10460619;28;20082;-71
2022/04/16 13:38:24;;;;;;;5.90;3.88;;;;;;;;;;10447685;28;20055;-71
2022/04/16 13:43:27;;;;;;;6.28;4.00;;;;;;;;;;10447166;28;20037;-70
2022/04/16 13:48:30;;;;;;;7.90;4.13;;;;;;;;;;10448169;28;20041;-71
2022/04/16 13:53:34;;;;;;;6.53;4.05;;;;;;;;;;10434337;28;20439;-71
2022/04/16 13:58:37;;;;;;;6.35;4.03;;;;;;;;;;10428367;28;20033;-71
2022/04/16 14:03:40;;;;;;;5.72;3.40;;;;;;;;;;10431840;28;20171;-71
2022/04/16 14:08:44;;;;;;;5.75;3.88;;;;;;;;;;10454025;28;20033;-71
2022/04/16 14:13:47;;;;;;;5.65;3.35;;;;;;;;;;10449465;28;20032;-71
2022/04/16 14:18:50;;;;;;;6.55;4.18;;;;;;;;;;10427920;28;20029;-71
2022/04/16 14:23:53;;;;;;;;;;;;;;;;;;10431451;28;20040;-70
2022/04/16 14:28:57;;;;;;;9.60;5.22;;;;;;;;;;10427877;28;20456;-71
2022/04/16 14:34:00;;;;;;;5.47;3.28;;;;;;;;;;10438085;28;20501;-71
2022/04/16 14:39:03;;;;;;;4.72;2.90;;;;;;;;;;10432683;28;20324;-70
2022/04/16 14:44:08;;;;;;;6.25;3.72;;;;;;;;;;10429585;28;20351;-71
2022/04/16 14:49:12;;;;;;;6.63;4.10;;;;;;;;;;10429665;28;20041;-71
2022/04/16 14:54:15;;;;;;;6.00;3.67;;;;;;;;;;10448081;28;20398;-71
2022/04/16 14:59:19;;;;;;;5.07;3.40;;;;;;;;;;10435581;28;20158;-71
2022/04/16 15:04:23;;;;;;;5.28;3.53;;;;;;;;;;10432980;28;20039;-70
2022/04/16 15:09:26;;;;;;;;;;;;;;;;;;10446658;28;20056;-71
2022/04/16 15:14:31;;;;;;;8.25;4.05;;;;;;;;;;10455572;28;20297;-71
2022/04/16 15:19:34;;;;;;;5.38;3.20;;;;;;;;;;10431103;28;20037;-71
2022/04/16 15:24:37;;;;;;;;;;;;;;;;;;10424521;28;20047;-71
2022/04/16 15:29:42;;;;;;;4.55;2.60;;;;;;;;;;10427262;28;19929;-71
2022/04/16 15:34:45;;;;;;;4.78;2.80;;;;;;;;;;10432002;28;20052;-70
2022/04/16 15:39:48;;;;;;;4.60;2.63;;;;;;;;;;10433590;28;20745;-71
2022/04/16 15:44:52;;;;;;;5.60;2.97;;;;;;;;;;10429409;28;20462;-71
2022/04/16 15:49:59;;;;;;;4.90;2.75;;;;;;;;;;10449194;28;20075;-71
2022/04/16 15:55:02;;;;;;;4.82;3.03;;;;;;;;;;10436715;28;20375;-71
2022/04/16 16:00:08;;;;;;;6.13;3.47;;;;;;;;;;10429022;28;20111;-71
2022/04/16 16:05:11;;;;;;;5.85;2.83;;;;;;;;;;10436325;28;20095;-71
2022/04/16 16:10:14;;;;;;;6.05;3.13;;;;;;;;;;10429324;28;20043;-70
2022/04/16 16:15:18;;;;;;;7.30;3.63;;;;;;;;;;10427989;28;20038;-71
2022/04/16 16:25:32;;;;;;;9.50;3.65;;;;;;;;;;10390189;28;20494;-73
2022/04/16 16:30:36;;;;;;;5.30;2.65;;;;;;;;;;10397786;28;20034;-73
2022/04/16 16:35:39;;;;;;;8.10;4.45;;;;;;;;;;10391352;28;20073;-73
2022/04/16 16:40:42;;;;;;;6.33;3.00;;;;;;;;;;10395991;28;20096;-73
2022/04/16 16:45:47;;;;;;;4.57;2.35;;;;;;;;;;10395703;28;20053;-73
2022/04/16 16:50:50;;;;;;;4.38;1.92;;;;;;;;;;10383527;28;20041;-73
2022/04/16 16:55:52;;;;;;;3.67;2.60;;;;;;;;;;10398666;28;20075;-73
2022/04/16 17:00:57;;;;;;;3.80;2.50;;;;;;;;;;10399149;28;20100;-73
2022/04/16 17:06:00;;;;;;;5.65;2.75;;;;;;;;;;10397741;28;20433;-70
2022/04/16 17:11:04;;;;;;;6.03;3.22;;;;;;;;;;10397158;28;20049;-72
2022/04/16 17:21:29;;;;;;;4.47;2.88;;;;;;;;;;10398079;28;20103;-73
2022/04/16 17:26:32;;;;;;;5.93;2.78;;;;;;;;;;10382706;28;20136;-73
2022/04/16 17:31:37;;;;;;;5.55;3.08;;;;;;;;;;10401158;28;20069;-73
2022/04/16 17:36:40;;;;;;;6.68;3.40;;;;;;;;;;10397330;28;20053;-72
2022/04/16 17:42:06;;;;;;;7.30;3.53;;;;;;;;;;10396281;28;20417;-72
2022/04/16 17:47:07;;;;;;;7.80;3.22;;;;;;;;;;10377550;28;20379;-73
2022/04/16 17:52:10;;;;;;;6.25;2.90;;;;;;;;;;10381391;28;20041;-72
2022/04/16 17:57:13;;;;;;;5.85;3.20;;;;;;;;;;10394116;28;20041;-72
2022/04/16 18:02:18;;;;;;;7.65;2.88;;;;;;;;;;10397469;28;20069;-72
2022/04/16 18:07:21;;;;;;;;;;;;;;;;;;10379502;28;20498;-72
2022/04/16 18:12:24;;;;;;;5.70;3.20;;;;;;;;;;10396378;28;19928;-72
2022/04/16 18:17:31;;;;;;;6.47;3.03;;;;;;;;;;10396112;28;20447;-74
2022/04/16 18:22:34;;;;;;;5.55;3.17;;;;;;;;;;10398187;28;20037;-73
2022/04/16 18:27:38;;;;;;;7.00;3.50;;;;;;;;;;10407728;28;20520;-73
2022/04/16 18:32:43;;;;;;;6.35;3.33;;;;;;;;;;10395897;28;20131;-73
2022/04/16 18:37:48;;;;;;;7.53;3.30;;;;;;;;;;10376804;28;20649;-73
2022/04/16 18:42:51;;;;;;;9.70;3.65;;;;;;;;;;10379468;28;20378;-73
2022/04/16 18:47:55;;;;;;;7.30;3.35;;;;;;;;;;10393819;28;20128;-72
2022/04/16 18:52:59;;;;;;;;;;;;;;;;;;10379312;28;20065;-72
2022/04/16 18:58:02;;;;;;;7.07;3.10;;;;;;;;;;10395952;28;19928;-73
2022/04/16 19:08:28;;;;;;;7.43;3.53;;;;;;;;;;10395579;28;20465;-73
2022/04/16 19:13:30;;;;;;;7.77;3.70;;;;;;;;;;10393049;28;20498;-73
2022/04/16 19:18:35;;;;;;;6.28;3.17;;;;;;;;;;10398054;28;20025;-73
2022/04/16 19:23:37;;;;;;;;;;;;;;;;;;10398155;28;20470;-73
2022/04/16 19:28:40;;;;;;;6.78;3.00;;;;;;;;;;10380870;28;20150;-73
2022/04/16 19:33:44;;;;;;;4.65;2.13;;;;;;;;;;10404526;28;20041;-72
2022/04/16 19:38:48;;;;;;;5.07;3.08;;;;;;;;;;10395452;28;20033;-73
2022/04/16 19:43:51;;;;;;;6.15;3.30;;;;;;;;;;10389949;28;20065;-72
2022/04/16 19:48:57;;;;;;;3.45;2.22;;;;;;;;;;10396641;28;20038;-72
2022/04/16 19:53:59;;;;;;;8.25;3.50;;;;;;;;;;10393345;28;20107;-72
2022/04/16 19:59:02;;;;;;;6.55;3.50;;;;;;;;;;10372517;28;20084;-72
2022/04/16 20:04:09;;;;;;;5.32;2.83;;;;;;;;;;10389604;28;20037;-72
2022/04/16 20:14:34;;;;;;;4.38;1.85;;;;;;;;;;10392722;28;20559;-72
2022/04/16 20:19:38;;;;;;;8.15;3.65;;;;;;;;;;10397214;28;20057;-72
2022/04/16 20:24:41;;;;;;;6.22;2.83;;;;;;;;;;10398442;28;20048;-72
2022/04/16 20:29:44;;;;;;;7.55;3.05;;;;;;;;;;10406223;28;20034;-73
2022/04/16 20:34:49;;;;;;;5.82;2.72;;;;;;;;;;10380424;28;20099;-72
2022/04/16 20:45:22;;;;;;;5.05;2.38;;;;;;;;;;10397060;28;20045;-72
2022/04/16 20:50:27;;;;;;;5.83;2.80;;;;;;;;;;10398662;28;20057;-72
2022/04/16 20:55:31;;;;;;;7.60;3.45;;;;;;;;;;10399367;28;20087;-73
2022/04/16 21:00:35;;;;;;;3.25;1.80;;;;;;;;;;10399702;28;20038;-73
2022/04/16 21:05:40;;;;;;;5.28;1.90;;;;;;;;;;10392990;28;20045;-72
2022/04/16 21:10:43;;;;;;;4.78;2.47;;;;;;;;;;10394898;28;20475;-72
2022/04/16 21:15:48;;;;;;;11.25;3.50;;;;;;;;;;10375446;28;20737;-70
2022/04/16 21:20:52;;;;;;;4.47;2.03;;;;;;;;;;10394766;28;20126;-72
2022/04/16 21:25:55;;;;;;;6.43;2.40;;;;;;;;;;10392105;28;20353;-72
2022/04/16 21:30:58;;;;;;;6.18;2.25;;;;;;;;;;10394421;28;20041;-73
2022/04/16 21:36:03;;;;;;;7.50;2.97;;;;;;;;;;10399402;28;20065;-73
2022/04/16 21:41:08;;;;;;;5.72;2.42;;;;;;;;;;10398535;28;20041;-72
2022/04/16 21:46:10;;;;;;;4.10;2.50;;;;;;;;;;10402941;28;20060;-72
2022/04/16 21:51:15;;;;;;;7.33;2.63;;;;;;;;;;10398120;28;20045;-72
2022/04/16 21:56:17;;;;;;;;;;;;;;;;;;10400017;28;20578;-71
2022/04/16 22:01:47;;;;;;;9.98;3.45;;;;;;;;;;10383448;28;19921;-71
2022/04/16 22:06:54;;;;;;;5.28;2.42;;;;;;;;;;10398141;28;20030;-72
2022/04/16 22:11:57;;;;;;;8.00;3.60;;;;;;;;;;10401269;28;20077;-72
2022/04/16 22:17:00;;;;;;;9.60;3.33;;;;;;;;;;10395718;28;20202;-72
2022/04/16 22:22:04;;;;;;;8.43;3.75;;;;;;;;;;10433635;22;20041;-69
2022/04/16 22:27:07;;;;;;;;;;;;;;;;;;10426758;28;20105;-69
2022/04/16 22:32:09;;;;;;;6.33;2.93;;;;;;;;;;10440459;28;19924;-70
2022/04/16 22:42:34;;;;;;;13.27;3.87;;;;;;;;;;10439170;28;20119;-70
2022/04/16 22:47:37;;;;;;;15.53;3.93;;;;;;;;;;10439199;28;20513;-69
2022/04/16 22:52:41;;;;;;;8.43;3.60;;;;;;;;;;10445896;28;20045;-70
2022/04/16 22:57:44;;;;;;;8.60;3.90;;;;;;;;;;10444239;28;20048;-70
2022/04/16 23:02:47;;;;;;;6.03;2.50;;;;;;;;;;10421959;28;20405;-70
2022/04/16 23:07:51;;;;;;;8.43;3.93;;;;;;;;;;10443513;28;20773;-69
2022/04/16 23:12:55;;;;;;;7.87;3.23;;;;;;;;;;10443809;28;20033;-69
2022/04/16 23:17:58;;;;;;;9.27;3.78;;;;;;;;;;10424934;28;20041;-70
2022/04/16 23:23:02;;;;;;;8.50;3.50;;;;;;;;;;10423495;28;20053;-69
2022/04/16 23:28:07;;;;;;;9.67;4.27;;;;;;;;;;10439727;28;20132;-69
2022/04/16 23:33:10;;;;;;;9.30;3.77;;;;;;;;;;10437198;28;20057;-70
2022/04/16 23:38:17;;;;;;;5.03;2.00;;;;;;;;;;10439602;28;20514;-69
2022/04/16 23:43:20;;;;;;;12.43;4.60;;;;;;;;;;10424479;28;20048;-70
2022/04/16 23:48:22;;;;;;;8.63;3.43;;;;;;;;;;10440488;28;20041;-70
2022/04/16 23:53:27;;;;;;;9.07;3.07;;;;;;;;;;10449400;28;20067;-69
2022/04/16 23:58:29;;;;;;;6.13;3.03;;;;;;;;;;10436161;28;20432;-69
